Time;durP1;ratioP1;P1;durP2;ratioP2;P2;SDS_P1;SDS_P2;PMS_P1;PMS_P2;Temp;Humidity;BMP_temperature;BMP_pressure;BME280_temperature;BME280_humidity;BME280_pressure;Samples;Min_cycle;Max_cycle;Signal;HPM_P1;HPM_P2
2023/04/24 00:01:50;;;;;;;23.67;15.13;;;;;;;11.22;100.00;100317.16;5043696;28;20816;-71
2023/04/24 00:04:16;;;;;;;16.17;13.43;;;;;;;11.26;100.00;100296.97;5048539;28;20061;-71
2023/04/24 00:06:43;;;;;;;18.85;12.98;;;;;;;11.26;100.00;100318.00;5047719;28;20098;-71
2023/04/24 00:09:11;;;;;;;21.95;16.38;;;;;;;10.60;100.00;100193.13;5052397;28;20033;-71
2023/04/24 00:11:36;;;;;;;21.05;15.02;;;;;;;11.28;100.00;100308.34;5029341;28;20038;-71
2023/04/24 00:14:02;;;;;;;14.65;12.10;;;;;;;11.07;100.00;100272.56;5031127;28;20112;-71
2023/04/24 00:16:28;;;;;;;21.50;13.88;;;;;;;11.18;100.00;100292.63;5034142;28;20047;-71
2023/04/24 00:18:54;;;;;;;20.17;15.18;;;;;;;10.69;100.00;100252.56;5046718;28;20053;-71
2023/04/24 00:21:21;;;;;;;21.70;15.43;;;;;;;9.79;100.00;100128.63;5048980;28;20037;-71
2023/04/24 00:23:47;;;;;;;20.92;15.35;;;;;;;10.49;100.00;100248.25;5046350;28;20103;-71
2023/04/24 00:26:13;;;;;;;24.08;17.42;;;;;;;10.33;100.00;100208.06;5046216;28;20132;-71
2023/04/24 00:28:39;;;;;;;22.33;16.75;;;;;;;10.16;100.00;100199.34;5038099;28;20119;-71
2023/04/24 00:31:05;;;;;;;25.05;16.65;;;;;;;9.60;100.00;100069.25;5039067;28;20571;-70
2023/04/24 00:33:30;;;;;;;18.65;15.70;;;;;;;10.50;100.00;100213.28;5038463;28;20029;-71
2023/04/24 00:35:56;;;;;;;21.73;16.17;;;;;;;10.63;100.00;100211.50;5028948;28;20069;-70
2023/04/24 00:38:22;;;;;;;20.75;16.35;;;;;;;9.80;100.00;100071.84;5027976;28;20797;-70
2023/04/24 00:40:49;;;;;;;20.25;14.45;;;;;;;10.18;100.00;100149.50;5027755;28;20046;-72
2023/04/24 00:43:15;;;;;;;24.05;16.65;;;;;;;10.12;100.00;100163.53;5028414;28;20049;-70
2023/04/24 00:45:40;;;;;;;21.17;16.60;;;;;;;10.08;100.00;100088.38;5021738;28;20034;-70
2023/04/24 00:48:07;;;;;;;23.70;15.93;;;;;;;10.66;100.00;100164.25;5029075;28;20540;-70
2023/04/24 00:50:33;;;;;;;24.20;15.48;;;;;;;10.76;100.00;100173.81;5027765;28;20045;-71
2023/04/24 00:52:59;;;;;;;22.13;15.00;;;;;;;10.76;100.00;100165.94;5027262;28;20045;-70
2023/04/24 00:55:25;;;;;;;17.90;15.05;;;;;;;10.68;100.00;100172.13;5027998;28;20530;-71
2023/04/24 00:57:51;;;;;;;22.83;16.88;;;;;;;10.18;100.00;100126.78;5027055;28;20055;-71
2023/04/24 01:00:17;;;;;;;30.70;19.08;;;;;;;10.64;100.00;100155.50;5028038;28;20045;-70
2023/04/24 01:02:44;;;;;;;26.60;15.52;;;;;;;10.53;100.00;100166.03;5031218;28;20076;-71
2023/04/24 01:05:12;;;;;;;24.98;17.52;;;;;;;9.79;100.00;100020.34;5044278;28;20075;-71
2023/04/24 01:07:39;;;;;;;20.75;17.33;;;;;;;10.55;100.00;100153.78;5047409;28;20156;-71
2023/04/24 01:10:05;;;;;;;20.73;16.70;;;;;;;9.79;100.00;100010.72;5046124;28;20111;-71
2023/04/24 01:12:31;;;;;;;21.60;16.20;;;;;;;10.47;100.00;100128.47;5038468;28;20033;-71
2023/04/24 01:14:57;;;;;;;25.85;16.60;;;;;;;9.63;100.00;100028.22;5047817;28;20048;-73
2023/04/24 01:17:22;;;;;;;21.40;16.80;;;;;;;9.58;100.00;100016.03;5046640;28;20044;-70
2023/04/24 01:19:48;;;;;;;24.17;19.88;;;;;;;10.21;100.00;100099.66;5047264;28;20068;-70
2023/04/24 01:22:14;;;;;;;28.88;20.02;;;;;;;10.21;100.00;100128.50;5045892;28;20045;-73
2023/04/24 01:24:41;;;;;;;37.55;22.50;;;;;;;10.46;100.00;100143.31;5026243;28;20044;-71
2023/04/24 01:27:07;;;;;;;40.22;34.42;;;;;;;9.79;100.00;100104.19;5026100;28;20037;-72
2023/04/24 01:29:34;;;;;;;43.63;36.83;;;;;;;9.12;100.00;100027.41;5039540;28;20111;-69
2023/04/24 01:31:59;;;;;;;37.95;32.35;;;;;;;9.89;100.00;100132.97;5027000;28;20120;-70
2023/04/24 01:34:25;;;;;;;41.47;32.30;;;;;;;9.78;100.00;100134.72;5029094;28;20128;-70
2023/04/24 01:36:51;;;;;;;37.65;33.30;;;;;;;9.33;100.00;100013.44;5032832;28;20044;-70
2023/04/24 01:39:18;;;;;;;41.67;32.70;;;;;;;9.24;100.00;100002.97;5026396;28;20033;-72
2023/04/24 01:41:43;;;;;;;47.33;33.35;;;;;;;9.79;100.00;100118.16;5031469;28;20041;-70
2023/04/24 01:44:09;;;;;;;39.20;32.28;;;;;;;9.54;100.00;100085.00;5037426;28;20056;-70
2023/04/24 01:46:35;;;;;;;34.90;31.02;;;;;;;9.71;100.00;100091.06;5032378;28;20041;-70
2023/04/24 01:49:01;;;;;;;37.50;29.90;;;;;;;9.57;100.00;100100.69;5026696;28;20521;-73
2023/04/24 01:51:27;;;;;;;35.00;26.20;;;;;;;8.80;100.00;99959.38;5026931;28;20037;-70
2023/04/24 01:53:53;;;;;;;31.55;24.98;;;;;;;8.92;100.00;99948.94;5027440;28;20037;-69
2023/04/24 01:56:21;;;;;;;26.27;21.20;;;;;;;8.73;100.00;99982.03;5025764;28;20408;-69
2023/04/24 01:58:47;;;;;;;29.90;21.55;;;;;;;9.23;100.00;100083.25;5015834;28;20807;-69
2023/04/24 02:01:20;;;;;;;28.63;23.65;;;;;;;9.21;100.00;100082.38;5028826;28;20057;-71
2023/04/24 02:03:46;;;;;;;27.30;21.92;;;;;;;9.24;100.00;100055.34;5025996;28;20040;-70
2023/04/24 02:06:12;;;;;;;29.38;23.08;;;;;;;9.19;100.00;100052.72;5027212;28;20057;-69
2023/04/24 02:08:37;;;;;;;27.05;23.30;;;;;;;9.22;100.00;100049.22;5025964;28;20053;-70
2023/04/24 02:11:03;;;;;;;28.13;22.45;;;;;;;9.66;100.00;100077.13;5047926;28;20095;-70
2023/04/24 02:13:29;;;;;;;39.13;26.27;;;;;;;9.72;100.00;100064.88;5038010;28;20042;-71
2023/04/24 02:15:54;;;;;;;32.05;25.25;;;;;;;9.48;100.00;100043.97;5026747;28;20045;-72
2023/04/24 02:18:20;;;;;;;37.85;23.60;;;;;;;9.48;100.00;100031.75;5028617;28;20100;-72
2023/04/24 02:20:45;;;;;;;26.60;21.70;;;;;;;8.36;100.00;99923.63;5026531;28;20049;-70
2023/04/24 02:23:11;;;;;;;33.08;21.23;;;;;;;8.25;100.00;99924.47;5022372;28;20518;-70
2023/04/24 02:25:36;;;;;;;29.55;20.85;;;;;;;8.86;100.00;100054.44;5029777;28;20045;-70
2023/04/24 02:28:02;;;;;;;22.38;19.08;;;;;;;7.95;100.00;99908.72;5019352;28;20041;-71
2023/04/24 02:30:28;;;;;;;32.97;20.48;;;;;;;8.80;100.00;100035.25;5029231;28;20104;-71
2023/04/24 02:32:53;;;;;;;19.15;17.15;;;;;;;8.81;100.00;100034.41;5030869;28;20110;-71
2023/04/24 02:35:19;;;;;;;23.92;19.52;;;;;;;8.78;100.00;100030.03;5038324;28;20040;-71
2023/04/24 02:37:45;;;;;;;22.58;19.33;;;;;;;8.46;100.00;100009.06;5036884;28;20057;-71
2023/04/24 02:40:11;;;;;;;26.98;21.38;;;;;;;8.06;100.00;99938.38;5037318;28;20067;-71
2023/04/24 02:42:36;;;;;;;34.22;28.02;;;;;;;8.62;100.00;100016.06;5040069;28;20029;-70
2023/04/24 02:45:02;;;;;;;34.25;25.10;;;;;;;7.89;100.00;99919.16;5041787;28;20033;-70
2023/04/24 02:47:27;;;;;;;30.92;27.52;;;;;;;8.50;100.00;100043.91;5029832;28;20127;-70
2023/04/24 02:49:53;;;;;;;34.15;29.27;;;;;;;8.56;100.00;100031.72;5029884;28;20049;-70
2023/04/24 02:52:18;;;;;;;38.38;27.92;;;;;;;8.97;100.00;100028.31;5029836;28;20335;-71
2023/04/24 02:54:44;;;;;;;37.15;29.73;;;;;;;9.03;100.00;100025.66;5030173;28;20481;-71
2023/04/24 02:57:09;;;;;;;38.78;30.05;;;;;;;8.36;100.00;99900.97;5022988;28;20038;-71
2023/04/24 02:59:35;;;;;;;33.38;29.80;;;;;;;8.73;100.00;100051.81;5043919;28;20067;-71
2023/04/24 03:02:00;;;;;;;27.17;22.25;;;;;;;7.66;100.00;99900.81;5045945;28;20139;-71
2023/04/24 03:04:26;;;;;;;30.25;23.23;;;;;;;7.74;100.00;99915.63;5049427;28;20477;-71
2023/04/24 03:06:54;;;;;;;22.75;20.35;;;;;;;8.50;100.00;100036.06;5049441;28;20053;-70
2023/04/24 03:09:23;;;;;;;32.08;23.30;;;;;;;8.60;100.00;100020.41;5032291;28;20036;-71
2023/04/24 03:11:49;;;;;;;36.38;22.52;;;;;;;8.73;100.00;100013.44;5049352;28;20114;-71
2023/04/24 03:14:15;;;;;;;26.70;23.38;;;;;;;8.55;100.00;99955.91;5049673;28;20053;-70
2023/04/24 03:16:41;;;;;;;26.20;20.38;;;;;;;8.38;100.00;99907.06;5048938;28;20128;-70
2023/04/24 03:19:06;;;;;;;24.92;22.02;;;;;;;8.42;100.00;99900.97;5049218;28;20037;-73
2023/04/24 03:21:32;;;;;;;29.20;21.00;;;;;;;9.19;100.00;100029.16;5049487;28;20028;-72
2023/04/24 03:23:58;;;;;;;23.52;19.00;;;;;;;9.20;100.00;100036.16;5050118;28;20381;-74
2023/04/24 03:26:23;;;;;;;23.17;18.70;;;;;;;9.26;100.00;100038.75;5047440;28;20048;-72
2023/04/24 03:28:49;;;;;;;26.50;17.95;;;;;;;9.20;100.00;100045.72;5047858;28;20493;-72
2023/04/24 03:31:15;;;;;;;17.77;15.88;;;;;;;9.11;100.00;100024.78;5042634;28;20053;-70
2023/04/24 03:33:40;;;;;;;24.55;15.00;;;;;;;9.23;100.00;100045.75;5025170;28;20084;-70
2023/04/24 03:36:06;;;;;;;26.67;15.75;;;;;;;9.20;100.00;100048.34;5029881;28;20037;-71
2023/04/24 03:38:32;;;;;;;24.70;15.05;;;;;;;9.00;100.00;99994.28;5027577;28;20069;-71
2023/04/24 03:40:57;;;;;;;26.63;15.05;;;;;;;8.82;100.00;100042.22;5034339;28;20044;-71
2023/04/24 03:43:23;;;;;;;17.25;15.00;;;;;;;8.72;100.00;100095.41;5040462;28;20111;-70
2023/04/24 03:45:48;;;;;;;33.03;15.45;;;;;;;8.80;100.00;100059.69;5035513;28;20153;-71
2023/04/24 03:48:14;;;;;;;25.33;14.60;;;;;;;8.28;100.00;100024.66;5029243;28;20797;-70
2023/04/24 03:50:39;;;;;;;26.27;16.17;;;;;;;8.54;100.00;100151.13;5028960;28;20037;-70
2023/04/24 03:53:05;;;;;;;22.98;15.38;;;;;;;8.34;100.00;100130.13;5028774;28;20107;-71
2023/04/24 03:55:30;;;;;;;17.13;15.02;;;;;;;8.11;100.00;100100.38;5028644;28;20508;-71
2023/04/24 03:57:56;;;;;;;26.90;17.48;;;;;;;7.51;100.00;99991.22;5017572;28;20045;-72
2023/04/24 04:00:21;;;;;;;28.23;16.70;;;;;;;8.23;100.00;100126.56;5029264;28;20452;-70
2023/04/24 04:02:47;;;;;;;23.85;17.23;;;;;;;7.46;100.00;99995.56;5029397;28;20553;-70
2023/04/24 04:05:12;;;;;;;26.20;15.73;;;;;;;8.23;100.00;100118.75;5046364;28;20041;-71
2023/04/24 04:07:37;;;;;;;22.20;13.95;;;;;;;8.35;100.00;100125.75;5037225;28;20818;-70
2023/04/24 04:10:03;;;;;;;20.80;14.60;;;;;;;8.59;100.00;100125.00;5023269;28;20410;-71
2023/04/24 04:12:29;;;;;;;23.25;15.43;;;;;;;7.67;100.00;99988.72;5048548;28;20032;-71
2023/04/24 04:14:55;;;;;;;18.27;13.10;;;;;;;7.79;100.00;100015.75;5048999;28;20166;-72
2023/04/24 04:17:20;;;;;;;17.00;14.55;;;;;;;8.93;100.00;100140.81;5025698;28;20557;-70
2023/04/24 04:19:46;;;;;;;30.02;16.83;;;;;;;8.91;100.00;100112.00;5039033;28;20041;-71
2023/04/24 04:22:11;;;;;;;32.90;17.08;;;;;;;9.20;100.00;100139.97;5043033;28;20074;-70
2023/04/24 04:24:37;;;;;;;28.13;17.67;;;;;;;8.95;100.00;100142.56;5029613;28;20033;-70
2023/04/24 04:27:04;;;;;;;24.65;17.88;;;;;;;8.81;100.00;100137.28;5042753;28;20393;-70
2023/04/24 04:29:31;;;;;;;31.17;16.20;;;;;;;8.30;100.00;100018.56;5027669;28;20041;-70
2023/04/24 04:31:57;;;;;;;22.00;16.33;;;;;;;8.70;100.00;100023.03;5026232;28;20132;-71
2023/04/24 04:34:23;;;;;;;34.90;17.95;;;;;;;9.09;100.00;100067.56;5028625;28;20124;-70
2023/04/24 04:36:48;;;;;;;28.35;16.38;;;;;;;9.62;100.00;100126.03;5040413;28;20140;-70
2023/04/24 04:39:18;;;;;;;29.35;18.58;;;;;;;8.96;100.00;100044.84;5035159;28;20032;-71
2023/04/24 04:41:44;;;;;;;25.58;17.10;;;;;;;8.88;100.00;100081.50;5039319;28;20052;-70
2023/04/24 04:44:09;;;;;;;28.35;18.15;;;;;;;9.53;100.00;100183.66;5037419;28;20049;-70
2023/04/24 04:46:37;;;;;;;21.52;14.77;;;;;;;9.57;100.00;100190.63;5029964;28;20041;-70
2023/04/24 04:49:02;;;;;;;35.42;18.30;;;;;;;9.67;100.00;100166.19;5027203;28;20053;-71
2023/04/24 04:51:28;;;;;;;28.58;17.33;;;;;;;9.87;100.00;100202.84;5027330;28;20110;-71
2023/04/24 04:53:54;;;;;;;30.67;17.13;;;;;;;9.35;100.00;100116.44;5027684;28;20069;-72
2023/04/24 04:56:19;;;;;;;22.85;16.15;;;;;;;9.75;100.00;100175.81;5025067;28;20489;-71
2023/04/24 04:58:45;;;;;;;26.45;15.70;;;;;;;9.95;100.00;100202.88;5041240;28;20057;-71
2023/04/24 05:01:10;;;;;;;21.42;17.15;;;;;;;9.17;100.00;100071.91;5026263;28;20408;-72
2023/04/24 05:03:36;;;;;;;31.25;17.42;;;;;;;10.07;100.00;100166.16;5030201;28;20056;-71
2023/04/24 05:06:02;;;;;;;30.98;15.90;;;;;;;10.00;100.00;100195.88;5046035;28;20049;-70
2023/04/24 05:08:27;;;;;;;34.05;18.35;;;;;;;10.24;100.00;100217.69;5028067;28;20049;-71
2023/04/24 05:10:54;;;;;;;24.55;14.50;;;;;;;9.38;100.00;100094.59;5031287;28;20049;-71
2023/04/24 05:13:20;;;;;;;43.90;17.25;;;;;;;10.23;100.00;100216.81;5021593;28;20057;-70
2023/04/24 05:15:47;;;;;;;22.42;14.18;;;;;;;10.19;100.00;100222.94;5029238;28;20087;-70
2023/04/24 05:18:12;;;;;;;22.52;16.45;;;;;;;9.12;100.00;100071.91;5046968;28;20041;-72
2023/04/24 05:20:38;;;;;;;23.40;16.27;;;;;;;9.42;100.00;100050.09;5028221;28;20404;-69
2023/04/24 05:23:03;;;;;;;28.17;19.35;;;;;;;9.89;100.00;100070.06;5043099;28;20340;-72
2023/04/24 05:25:29;;;;;;;20.77;18.35;;;;;;;11.57;100.00;100226.75;5050340;28;20068;-71
2023/04/24 05:27:54;;;;;;;33.17;19.38;;;;;;;11.73;100.00;100223.13;5020047;28;20045;-71
2023/04/24 05:30:20;;;;;;;33.30;19.17;;;;;;;12.11;100.00;100119.38;5027110;28;20087;-72
2023/04/24 05:32:46;;;;;;;22.67;19.58;;;;;;;12.12;100.00;100192.13;5026547;28;20056;-70
2023/04/24 05:35:11;;;;;;;18.58;16.63;;;;;;;12.84;100.00;100186.03;5033293;28;20084;-71
2023/04/24 05:37:37;;;;;;;19.73;17.08;;;;;;;14.63;100.00;100304.63;5032806;28;20061;-71
2023/04/24 05:40:05;;;;;;;23.45;13.98;;;;;;;14.46;100.00;100201.94;5034366;28;20042;-70
2023/04/24 05:42:30;;;;;;;21.65;14.32;;;;;;;15.67;100.00;100323.66;5031636;28;20128;-72
2023/04/24 05:44:56;;;;;;;24.05;15.18;;;;;;;16.28;100.00;100331.94;5036663;28;20829;-71
2023/04/24 05:47:21;;;;;;;30.35;16.42;;;;;;;16.58;100.00;100343.53;5024836;28;20473;-71
2023/04/24 05:49:47;;;;;;;21.10;14.10;;;;;;;15.05;100.00;100347.84;5030830;28;20579;-71
2023/04/24 05:52:13;;;;;;;21.20;13.50;;;;;;;15.75;100.00;100271.44;5024913;28;20080;-70
2023/04/24 05:54:39;;;;;;;21.90;14.25;;;;;;;16.57;100.00;100362.97;5019794;28;20083;-72
2023/04/24 05:57:07;;;;;;;17.30;12.27;;;;;;;16.78;100.00;100369.50;5025777;28;20075;-72
2023/04/24 05:59:34;;;;;;;18.15;13.85;;;;;;;15.99;100.00;100282.34;5043580;28;20040;-72
2023/04/24 06:01:59;;;;;;;23.42;12.57;;;;;;;16.41;100.00;100351.03;5036876;28;20119;-70
2023/04/24 06:04:25;;;;;;;20.40;12.45;;;;;;;17.16;100.00;100354.41;5029139;28;20045;-71
2023/04/24 06:06:55;;;;;;;26.02;12.68;;;;;;;15.88;100.00;100356.72;5031813;28;20148;-70
2023/04/24 06:09:23;;;;;;;22.98;12.48;;;;;;;16.58;100.00;100245.53;5023441;28;20041;-71
2023/04/24 06:11:50;;;;;;;23.38;13.20;;;;;;;17.51;100.00;100357.78;5025569;28;20080;-70
2023/04/24 06:14:15;;;;;;;19.92;11.77;;;;;;;17.48;99.43;100275.66;5037239;28;20068;-70
2023/04/24 06:16:42;;;;;;;15.20;11.88;;;;;;;17.69;99.33;100345.78;5026686;28;20226;-70
2023/04/24 06:19:07;;;;;;;20.63;13.10;;;;;;;15.77;100.00;100362.25;5046251;28;20047;-69
2023/04/24 06:21:33;;;;;;;22.85;13.13;;;;;;;15.45;100.00;100347.03;5040094;28;20041;-72
2023/04/24 06:23:59;;;;;;;21.27;12.60;;;;;;;15.96;100.00;100352.09;5023826;28;20057;-70
2023/04/24 06:26:26;;;;;;;22.65;12.48;;;;;;;15.97;100.00;100327.41;5035220;28;20655;-70
2023/04/24 06:28:53;;;;;;;23.33;12.75;;;;;;;17.47;100.00;100327.84;5054655;28;20375;-70
2023/04/24 06:31:19;;;;;;;30.88;11.52;;;;;;;17.72;100.00;100345.66;5025868;28;20054;-70
2023/04/24 06:33:45;;;;;;;23.05;12.43;;;;;;;17.64;95.98;100345.03;5026595;28;20084;-70
2023/04/24 06:36:10;;;;;;;20.33;12.70;;;;;;;16.51;99.89;100341.97;5029650;28;20025;-71
2023/04/24 06:38:36;;;;;;;17.73;12.20;;;;;;;15.88;100.00;100250.00;5024542;28;20145;-70
2023/04/24 06:41:03;;;;;;;14.05;10.48;;;;;;;17.40;95.47;100309.53;5025002;28;20053;-70
2023/04/24 06:43:28;;;;;;;15.80;11.07;;;;;;;17.19;96.14;100266.81;5026672;28;20037;-70
2023/04/24 06:45:54;;;;;;;17.50;11.20;;;;;;;16.84;100.00;100294.31;5027049;28;20595;-72
2023/04/24 06:48:19;;;;;;;21.30;10.43;;;;;;;16.61;100.00;100268.41;5026150;28;20670;-71
2023/04/24 06:50:45;;;;;;;14.90;8.32;;;;;;;16.64;100.00;100330.13;5025232;28;20131;-71
2023/04/24 06:53:12;;;;;;;13.50;7.88;;;;;;;16.65;97.29;100333.66;5025913;28;20143;-70
2023/04/24 06:55:37;;;;;;;18.48;8.45;;;;;;;16.42;99.03;100313.06;5035331;28;20045;-69
2023/04/24 06:58:03;;;;;;;18.38;8.98;;;;;;;15.54;100.00;100224.31;5023296;28;20813;-70
2023/04/24 07:00:29;;;;;;;13.82;8.38;;;;;;;15.52;100.00;100204.97;5043242;28;20037;-70
2023/04/24 07:02:55;;;;;;;11.98;7.85;;;;;;;15.89;100.00;100267.63;5042365;28;20025;-70
2023/04/24 07:05:20;;;;;;;11.93;9.05;;;;;;;15.24;99.37;100324.59;5023339;28;20617;-72
2023/04/24 07:07:47;;;;;;;13.05;8.43;;;;;;;15.18;100.00;100308.84;5024764;28;20046;-72
2023/04/24 07:10:12;;;;;;;16.73;8.68;;;;;;;15.50;100.00;100326.66;5023761;28;20037;-71
2023/04/24 07:12:38;;;;;;;14.23;8.63;;;;;;;15.98;100.00;100333.56;5021221;28;20033;-71
2023/04/24 07:15:05;;;;;;;14.98;9.13;;;;;;;14.77;100.00;100329.91;5046138;28;20037;-70
2023/04/24 07:17:31;;;;;;;16.13;8.25;;;;;;;14.69;100.00;100334.44;5036424;28;20424;-71
2023/04/24 07:19:56;;;;;;;18.42;9.60;;;;;;;15.15;100.00;100306.28;5031640;28;20045;-73
2023/04/24 07:22:22;;;;;;;14.15;8.02;;;;;;;15.04;100.00;100234.25;5043161;28;20084;-74
2023/04/24 07:24:48;;;;;;;15.13;9.75;;;;;;;14.86;100.00;100172.09;5044177;28;20119;-73
2023/04/24 07:27:14;;;;;;;19.60;9.98;;;;;;;15.67;100.00;100306.91;5023502;28;20127;-76
2023/04/24 07:29:40;;;;;;;18.45;9.85;;;;;;;15.15;100.00;100211.13;5020151;28;20589;-74
2023/04/24 07:32:06;;;;;;;14.73;8.63;;;;;;;15.66;100.00;100337.75;5040048;28;20053;-75
2023/04/24 07:34:31;;;;;;;17.77;9.65;;;;;;;15.61;100.00;100355.50;5027868;28;20053;-74
2023/04/24 07:36:57;;;;;;;18.23;7.78;;;;;;;15.82;100.00;100347.13;5022882;28;20077;-73
2023/04/24 07:39:23;;;;;;;16.80;8.40;;;;;;;15.27;100.00;100239.91;5029465;28;20041;-73
2023/04/24 07:41:49;;;;;;;23.08;10.60;;;;;;;15.10;100.00;100284.31;5027498;28;20061;-74
2023/04/24 07:44:14;;;;;;;16.45;8.57;;;;;;;15.05;100.00;100239.50;5039995;28;20452;-73
2023/04/24 07:46:40;;;;;;;13.52;9.57;;;;;;;15.61;100.00;100315.84;5048453;28;20056;-75
2023/04/24 07:49:06;;;;;;;16.20;9.70;;;;;;;14.86;100.00;100223.16;5025859;28;20041;-74
2023/04/24 07:51:33;;;;;;;24.25;8.77;;;;;;;15.59;100.00;100322.94;5025759;28;20060;-73
2023/04/24 07:53:58;;;;;;;10.70;6.55;;;;;;;16.10;100.00;100345.63;5043992;28;20033;-73
2023/04/24 07:56:25;;;;;;;12.23;7.40;;;;;;;16.20;94.20;100339.19;5022579;28;20136;-74
2023/04/24 07:58:50;;;;;;;14.52;7.97;;;;;;;15.50;95.59;100244.69;5012944;28;20482;-73
2023/04/24 08:01:16;;;;;;;20.50;8.73;;;;;;;15.94;91.04;100335.38;5029932;28;20070;-75
2023/04/24 08:03:41;;;;;;;14.15;6.75;;;;;;;15.66;91.01;100245.19;5056016;28;20485;-72
2023/04/24 08:06:07;;;;;;;14.48;7.53;;;;;;;16.41;92.83;100348.38;5041636;28;20366;-73
2023/04/24 08:08:33;;;;;;;15.77;8.23;;;;;;;16.65;96.60;100339.81;5048712;28;20052;-72
2023/04/24 08:10:58;;;;;;;24.52;8.20;;;;;;;16.44;87.95;100346.53;5040391;28;20045;-73
2023/04/24 08:13:24;;;;;;;14.48;8.13;;;;;;;16.34;84.26;100315.91;5049908;28;20033;-73
2023/04/24 08:15:50;;;;;;;18.45;7.30;;;;;;;15.93;83.99;100251.63;5028032;28;20045;-72
2023/04/24 08:18:16;;;;;;;15.52;6.45;;;;;;;15.76;80.24;100251.19;5038336;28;20083;-72
2023/04/24 08:20:42;;;;;;;13.52;7.60;;;;;;;15.97;82.31;100229.47;5052330;28;20156;-73
2023/04/24 08:23:07;;;;;;;18.05;7.10;;;;;;;15.93;80.62;100224.31;5022773;28;20076;-74
2023/04/24 08:25:34;;;;;;;10.73;7.25;;;;;;;15.83;85.65;100303.03;5031831;28;20140;-74
2023/04/24 08:28:01;;;;;;;11.48;7.25;;;;;;;15.49;85.74;100218.28;5028568;28;20507;-74
2023/04/24 08:30:27;;;;;;;11.48;6.60;;;;;;;15.76;84.12;100241.47;5024383;28;20571;-73
2023/04/24 08:32:54;;;;;;;19.17;7.70;;;;;;;16.68;81.51;100296.47;5017297;28;20037;-74
2023/04/24 08:35:19;;;;;;;10.65;6.95;;;;;;;16.31;82.64;100202.13;5030636;28;20099;-75
2023/04/24 08:37:45;;;;;;;13.70;8.10;;;;;;;16.74;79.46;100296.31;5020207;28;20049;-73
2023/04/24 08:40:14;;;;;;;21.58;7.57;;;;;;;17.06;82.87;100295.44;5043077;28;20095;-75
2023/04/24 08:42:43;;;;;;;18.83;7.82;;;;;;;16.76;80.19;100222.94;5036852;28;20110;-73
2023/04/24 08:45:09;;;;;;;9.88;6.30;;;;;;;16.76;79.22;100182.31;5027899;28;20030;-74
2023/04/24 08:47:35;;;;;;;9.23;5.85;;;;;;;17.24;79.00;100270.19;5024139;28;20045;-74
2023/04/24 08:50:03;;;;;;;19.25;7.10;;;;;;;16.91;77.88;100173.97;5027652;28;20045;-74
2023/04/24 08:52:29;;;;;;;10.95;5.10;;;;;;;17.77;78.10;100261.50;5045147;28;20045;-74
2023/04/24 08:54:56;;;;;;;11.02;7.05;;;;;;;17.41;80.01;100215.75;5055788;28;20807;-73
2023/04/24 08:57:22;;;;;;;11.13;6.03;;;;;;;18.12;74.11;100305.50;5039936;28;20041;-74
2023/04/24 08:59:48;;;;;;;19.17;7.30;;;;;;;18.08;70.60;100306.53;5021532;28;20106;-75
2023/04/24 09:02:14;;;;;;;10.70;5.13;;;;;;;17.52;75.20;100203.88;5003834;28;20045;-75
2023/04/24 09:04:41;;;;;;;16.92;6.22;;;;;;;18.35;80.33;100287.91;5036452;28;20071;-75
2023/04/24 09:07:08;;;;;;;11.85;6.63;;;;;;;17.75;73.61;100189.00;5023780;28;20049;-75
2023/04/24 09:09:35;;;;;;;15.35;5.28;;;;;;;18.08;73.94;100285.28;5028951;28;20425;-74
2023/04/24 09:12:21;;;;;;;12.18;4.80;;;;;;;18.38;67.96;100300.22;5053500;28;20033;-75
2023/04/24 09:14:48;;;;;;;11.02;5.05;;;;;;;18.98;67.92;100286.56;5034576;28;20103;-74
2023/04/24 09:17:13;;;;;;;11.82;6.10;;;;;;;19.17;75.68;100240.69;5018292;28;20137;-77
2023/04/24 09:19:40;;;;;;;15.65;6.07;;;;;;;19.39;64.56;100289.50;5021115;28;20124;-75
2023/04/24 09:22:07;;;;;;;14.50;6.63;;;;;;;19.51;62.94;100242.03;5026291;28;20057;-78
2023/04/24 09:24:33;;;;;;;11.27;6.07;;;;;;;19.66;63.88;100161.53;5043461;28;20544;-75
2023/04/24 09:27:01;;;;;;;12.68;5.53;;;;;;;20.14;60.87;100284.78;5044354;28;20056;-73
2023/04/24 09:29:27;;;;;;;8.43;5.07;;;;;;;19.11;60.95;100196.56;5035979;28;20060;-75
2023/04/24 09:31:53;;;;;;;8.07;6.10;;;;;;;20.47;63.14;100287.81;5031187;28;20034;-74
2023/04/24 09:34:28;;;;;;;13.35;4.80;;;;;;;19.59;61.62;100274.53;5037581;28;20045;-75
2023/04/24 09:36:54;;;;;;;7.70;4.53;;;;;;;19.06;58.80;100168.41;5025423;28;20053;-75
2023/04/24 09:39:21;;;;;;;9.35;5.63;;;;;;;19.97;57.67;100262.38;5025493;28;20798;-75
2023/04/24 09:41:54;;;;;;;11.48;4.47;;;;;;;19.30;58.38;100186.06;5025210;28;20038;-74
2023/04/24 09:44:24;;;;;;;10.00;5.60;;;;;;;20.18;57.32;100271.28;5022353;28;20080;-74
2023/04/24 09:46:57;;;;;;;9.07;4.85;;;;;;;21.37;61.31;100266.88;5018581;28;20049;-74
2023/04/24 09:49:27;;;;;;;;;;;;;;;20.57;53.77;100269.66;5023760;28;20107;-75
2023/04/24 09:52:03;;;;;;;8.85;5.25;;;;;;;20.35;53.96;100181.75;5026315;28;20020;-74
2023/04/24 09:54:29;;;;;;;10.40;6.47;;;;;;;20.12;54.07;100209.38;5025162;28;20040;-75
2023/04/24 09:56:55;;;;;;;7.32;5.10;;;;;;;20.61;55.12;100255.25;5022394;28;20061;-80
2023/04/24 09:59:22;;;;;;;10.73;5.97;;;;;;;20.14;55.37;100130.28;5022551;28;20489;-73
2023/04/24 10:01:52;;;;;;;9.98;6.00;;;;;;;21.37;58.37;100141.44;5023841;28;20045;-73
2023/04/24 10:04:25;;;;;;;10.32;5.82;;;;;;;21.52;54.47;100155.88;5030158;28;20045;-75
2023/04/24 10:06:52;;;;;;;8.15;4.95;;;;;;;22.36;51.87;100225.59;5027877;28;20052;-75
2023/04/24 10:09:19;;;;;;;19.92;5.57;;;;;;;21.65;50.56;100175.69;5020288;28;20034;-75
2023/04/24 10:11:51;;;;;;;7.03;4.43;;;;;;;22.72;50.87;100224.59;5057097;28;20053;-74
2023/04/24 10:14:23;;;;;;;11.95;5.78;;;;;;;20.97;49.45;100166.50;5030328;28;20132;-76
2023/04/24 10:16:49;;;;;;;9.88;4.88;;;;;;;21.40;52.02;100234.78;5032645;28;20074;-74
2023/04/24 10:19:18;;;;;;;10.48;4.88;;;;;;;20.86;53.14;100132.31;5039271;28;20516;-75
2023/04/24 10:21:47;;;;;;;13.68;4.68;;;;;;;21.11;51.93;100196.06;5018035;28;20109;-73
2023/04/24 10:24:17;;;;;;;8.98;4.65;;;;;;;20.11;50.38;100187.22;5020978;28;20405;-76
2023/04/24 10:26:45;;;;;;;11.77;4.82;;;;;;;19.91;50.19;100152.56;5020744;28;20160;-75
2023/04/24 10:29:12;;;;;;;9.52;5.05;;;;;;;20.65;48.46;100216.88;5024277;28;20065;-73
2023/04/24 10:31:39;;;;;;;7.53;3.80;;;;;;;20.33;50.03;100210.25;5021133;28;20136;-74
2023/04/24 10:34:06;;;;;;;9.73;4.35;;;;;;;21.02;47.75;100225.84;5020412;28;20402;-75
2023/04/24 10:36:34;;;;;;;12.73;4.68;;;;;;;21.02;45.43;100220.50;5020280;28;20033;-74
2023/04/24 10:39:03;;;;;;;7.43;4.53;;;;;;;20.47;42.84;100119.91;5010859;28;20446;-74
2023/04/24 10:41:30;;;;;;;11.15;3.78;;;;;;;21.58;43.25;100198.28;5035239;28;20042;-73
2023/04/24 10:44:08;;;;;;;9.30;4.38;;;;;;;23.01;45.31;100206.97;5038166;28;20049;-74
2023/04/24 10:46:35;;;;;;;6.75;4.38;;;;;;;22.99;43.91;100203.50;5048783;28;20057;-74
2023/04/24 10:49:04;;;;;;;6.88;4.68;;;;;;;23.02;43.98;100200.69;5040940;28;20056;-76
2023/04/24 10:51:49;;;;;;;13.25;5.38;;;;;;;22.29;43.34;100187.63;5049246;28;20028;-73
2023/04/24 10:54:23;;;;;;;6.68;4.47;;;;;;;22.53;41.99;100209.50;5044833;28;20033;-74
2023/04/24 10:56:51;;;;;;;5.82;4.70;;;;;;;22.48;42.78;100098.41;5045835;28;20041;-74
2023/04/24 10:59:27;;;;;;;19.33;4.88;;;;;;;23.18;43.38;100200.72;5048521;28;20059;-74
2023/04/24 11:01:55;;;;;;;9.75;3.35;;;;;;;22.54;41.60;100179.13;5038544;28;20519;-74
2023/04/24 11:04:31;;;;;;;16.05;4.47;;;;;;;23.63;43.38;100201.72;5049025;28;20112;-72
2023/04/24 11:06:57;;;;;;;10.85;4.93;;;;;;;22.34;42.78;100097.34;5041983;28;20103;-73
2023/04/24 11:09:26;;;;;;;7.85;4.45;;;;;;;21.26;43.79;100093.06;5027724;28;20041;-72